Adrian, Ohio
Current Conditions -  °F | °C
As of 1:53 PM on Friday 24 Oct 2014 (Local Time) from KFDY Reporting Station
Broken Clouds Broken Clouds  
Wind Chill: 17°   Ceiling: 4200
Heat Index: 17°   Visibility: 8mi
Dew Point:   Wind: 5mph
Humidity: 50%   Direction: NA
Pressure: 30.04"   Gusts: NA
Location:  41°N, 83.32°W
Report Text: KFDY 241753Z AUTO VRB04KT 8SM BKN042 17/06 A3004 RMK AO2 SLP172 T01670061 10167 20028 58015
Loading
Personal Weather Stations






























Interactive Weather Map New forecast layout! Learn more

10-Day Weather Forecast

Advertisements
Track Severe Weather on mobile